createdAt,value
2022-10-14T00:02:00.898Z,30.73
2022-10-14T00:04:29.833Z,32.67
2022-10-14T00:06:58.509Z,29.88
2022-10-14T00:09:25.900Z,34.30
2022-10-14T00:11:53.292Z,30.63
2022-10-14T00:14:21.391Z,32.78
2022-10-14T00:16:49.698Z,30.10
2022-10-14T00:19:17.060Z,37.47
2022-10-14T00:21:45.191Z,32.08
2022-10-14T00:24:14.165Z,34.08
2022-10-14T00:26:41.856Z,35.55
2022-10-14T00:29:10.317Z,32.20
2022-10-14T00:31:37.718Z,31.27
2022-10-14T00:34:05.110Z,30.10
2022-10-14T00:36:32.426Z,28.63
2022-10-14T00:38:59.774Z,33.17
2022-10-14T00:41:29.367Z,32.30
2022-10-14T00:44:00.787Z,31.55
2022-10-14T00:46:29.522Z,37.03
2022-10-14T00:48:57.449Z,27.15
2022-10-14T00:51:24.898Z,32.55
2022-10-14T00:53:52.446Z,30.80
2022-10-14T00:56:22.984Z,31.55
2022-10-14T00:58:51.798Z,27.20
2022-10-14T01:01:19.308Z,30.10
2022-10-14T01:03:46.715Z,31.95
2022-10-14T01:06:18.799Z,30.38
2022-10-14T01:08:47.970Z,32.78
2022-10-14T01:11:18.261Z,29.50
2022-10-14T01:13:48.922Z,30.90
2022-10-14T01:16:20.943Z,31.10
2022-10-14T01:19:02.829Z,30.50
2022-10-14T01:21:34.013Z,30.00
2022-10-14T01:26:44.224Z,30.77
2022-10-14T01:29:18.277Z,31.40
2022-10-14T01:31:49.741Z,26.83
2022-10-14T01:34:26.547Z,28.52
2022-10-14T01:36:57.159Z,26.60
2022-10-14T01:39:26.250Z,26.92
2022-10-14T01:41:55.650Z,28.55
2022-10-14T01:44:25.028Z,31.73
2022-10-14T01:46:54.538Z,28.92
2022-10-14T01:49:25.017Z,32.50
2022-10-14T01:51:57.268Z,33.05
2022-10-14T01:54:27.400Z,30.95
2022-10-14T01:56:56.163Z,32.28
2022-10-14T01:59:24.043Z,35.45
2022-10-14T02:01:51.481Z,30.52
2022-10-14T02:04:20.798Z,32.30
2022-10-14T02:06:49.575Z,31.48
2022-10-14T02:09:21.448Z,29.48
2022-10-14T02:11:54.733Z,30.88
2022-10-14T02:14:28.698Z,31.30
2022-10-14T02:16:59.998Z,27.38
2022-10-14T02:19:30.790Z,30.98
2022-10-14T02:22:00.538Z,31.23
2022-10-14T02:24:31.430Z,30.60
2022-10-14T02:27:01.023Z,30.95
2022-10-14T02:29:28.918Z,34.83
2022-10-14T02:31:57.627Z,26.92
2022-10-14T02:34:26.409Z,31.48
2022-10-14T02:36:55.978Z,34.00
2022-10-14T02:39:27.288Z,31.05
2022-10-14T02:41:54.652Z,28.38
2022-10-14T02:44:22.076Z,29.20
2022-10-14T02:46:49.602Z,31.27
2022-10-14T02:49:17.015Z,31.90
2022-10-14T02:51:44.381Z,28.23
2022-10-14T02:54:13.046Z,33.70
2022-10-14T02:56:41.044Z,32.50
2022-10-14T02:59:08.482Z,32.88
2022-10-14T03:01:37.756Z,29.23
2022-10-14T03:04:05.427Z,31.25
2022-10-14T03:06:32.778Z,30.88
2022-10-14T03:09:00.138Z,31.25
2022-10-14T03:11:28.854Z,34.40
2022-10-14T03:13:56.238Z,31.58
2022-10-14T03:16:23.580Z,29.65
2022-10-14T03:18:50.950Z,31.83
2022-10-14T03:21:18.309Z,30.88
2022-10-14T03:23:45.708Z,33.63
2022-10-14T03:26:14.159Z,28.30
2022-10-14T03:28:43.087Z,27.95
2022-10-14T03:31:10.507Z,26.92
2022-10-14T03:33:38.136Z,27.58
2022-10-14T03:36:05.602Z,26.92
2022-10-14T03:38:33.027Z,30.23
2022-10-14T03:41:00.409Z,27.38
2022-10-14T03:43:28.440Z,27.50
2022-10-14T03:45:57.153Z,30.98
2022-10-14T03:48:24.476Z,28.23
2022-10-14T03:50:51.832Z,29.30
2022-10-14T03:53:19.205Z,25.75
2022-10-14T03:55:46.590Z,27.10
2022-10-14T03:58:14.005Z,25.73
2022-10-14T04:00:41.412Z,30.70
2022-10-14T04:03:10.114Z,27.67
2022-10-14T04:05:37.547Z,28.13
2022-10-14T04:08:05.109Z,31.27
2022-10-14T04:10:32.446Z,26.25
2022-10-14T04:12:59.817Z,27.42
2022-10-14T04:15:27.773Z,26.13
2022-10-14T04:17:55.195Z,31.85
2022-10-14T04:20:23.904Z,23.77
2022-10-14T04:22:51.323Z,28.15
2022-10-14T04:25:18.741Z,25.70
2022-10-14T04:27:46.103Z,28.38
2022-10-14T04:30:13.859Z,24.08
2022-10-14T04:32:41.218Z,25.00
2022-10-14T04:35:09.572Z,21.85
2022-10-14T04:37:38.284Z,25.40
2022-10-14T04:40:06.286Z,24.45
2022-10-14T04:42:33.666Z,25.55
2022-10-14T04:45:01.971Z,29.23
2022-10-14T04:47:29.339Z,26.05
2022-10-14T04:49:56.810Z,27.08
2022-10-14T04:52:24.518Z,27.63
2022-10-14T04:54:53.403Z,32.28
2022-10-14T04:57:20.748Z,24.85
2022-10-14T04:59:48.119Z,23.70
2022-10-14T05:02:15.516Z,28.23
2022-10-14T05:04:42.903Z,28.95
2022-10-14T05:07:10.279Z,28.90
2022-10-14T05:09:37.697Z,28.60
2022-10-14T05:12:06.745Z,27.15
2022-10-14T05:14:34.963Z,26.02
2022-10-14T05:17:02.590Z,29.85
2022-10-14T05:19:30.079Z,26.70
2022-10-14T05:21:57.441Z,30.45
2022-10-14T05:24:24.786Z,29.35
2022-10-14T05:26:52.314Z,28.45
2022-10-14T05:29:21.010Z,24.20
2022-10-14T05:31:48.382Z,29.08
2022-10-14T05:34:15.836Z,30.92
2022-10-14T05:36:43.212Z,29.98
2022-10-14T05:39:11.502Z,25.65
2022-10-14T05:41:38.991Z,27.02
2022-10-14T05:44:06.481Z,26.33
2022-10-14T05:46:35.147Z,27.40
2022-10-14T05:49:05.855Z,28.40
2022-10-14T05:51:33.558Z,25.65
2022-10-14T05:54:01.056Z,26.05
2022-10-14T05:56:28.568Z,30.98
2022-10-14T05:58:55.923Z,27.88
2022-10-14T06:01:23.256Z,25.27
2022-10-14T06:03:52.380Z,29.35
2022-10-14T06:06:20.079Z,30.70
2022-10-14T06:08:47.556Z,29.80
2022-10-14T06:11:14.971Z,26.27
2022-10-14T06:13:42.462Z,26.70
2022-10-14T06:16:10.746Z,30.23
2022-10-14T06:18:38.579Z,29.10
2022-10-14T06:21:07.350Z,28.05
2022-10-14T06:23:35.067Z,30.17
2022-10-14T06:26:04.726Z,31.48
2022-10-14T06:28:32.186Z,27.23
2022-10-14T06:30:59.545Z,27.48
2022-10-14T06:33:28.954Z,29.38
2022-10-14T06:35:56.587Z,34.67
2022-10-14T06:38:25.517Z,25.95
2022-10-14T06:40:52.933Z,30.13
2022-10-14T06:43:20.814Z,26.52
2022-10-14T06:45:48.327Z,32.10
2022-10-14T06:48:16.008Z,28.25
2022-10-14T06:50:43.411Z,25.63
2022-10-14T06:53:10.814Z,30.13
2022-10-14T06:55:39.504Z,27.50
2022-10-14T06:58:06.891Z,22.80
2022-10-14T07:00:34.331Z,25.17
2022-10-14T07:03:01.814Z,27.65
2022-10-14T07:05:29.211Z,28.67
2022-10-14T07:07:58.062Z,32.65
2022-10-14T07:10:25.560Z,28.25
2022-10-14T07:12:56.247Z,31.10
2022-10-14T07:15:23.703Z,28.40
2022-10-14T07:17:51.085Z,28.63
2022-10-14T07:20:18.453Z,26.60
2022-10-14T07:22:45.847Z,29.25
2022-10-14T07:25:13.282Z,27.77
2022-10-14T07:27:40.729Z,23.85
2022-10-14T07:30:12.604Z,28.08
2022-10-14T07:32:42.615Z,29.52
2022-10-14T07:35:10.186Z,27.90
2022-10-14T07:37:37.882Z,25.10
2022-10-14T07:40:05.818Z,24.90
2022-10-14T07:42:33.287Z,27.10
2022-10-14T07:45:00.636Z,26.95
2022-10-14T07:47:29.290Z,29.60
2022-10-14T07:49:56.718Z,27.00
2022-10-14T07:52:24.136Z,25.20
2022-10-14T07:54:51.498Z,23.80
2022-10-14T07:57:19.108Z,22.90
2022-10-14T07:59:46.905Z,27.67
2022-10-14T08:02:14.308Z,27.20
2022-10-14T08:04:43.013Z,26.70
2022-10-14T08:07:10.344Z,27.85
2022-10-14T08:09:37.683Z,24.33
2022-10-14T08:12:05.367Z,23.10
2022-10-14T08:14:32.886Z,25.75
2022-10-14T08:17:00.310Z,29.60
2022-10-14T08:19:27.812Z,22.90
2022-10-14T08:21:56.482Z,26.33
2022-10-14T08:24:23.829Z,23.45
2022-10-14T08:26:52.043Z,23.48
2022-10-14T08:29:19.535Z,22.55
2022-10-14T08:31:47.283Z,25.50
2022-10-14T08:34:14.674Z,22.38
2022-10-14T08:36:42.252Z,19.70
2022-10-14T08:39:11.249Z,21.05
2022-10-14T08:41:53.463Z,26.42
2022-10-14T08:44:23.164Z,23.80
2022-10-14T08:46:52.632Z,24.35
2022-10-14T08:49:24.375Z,23.13
2022-10-14T08:51:54.654Z,26.45
2022-10-14T08:54:26.338Z,24.70
2022-10-14T08:56:53.784Z,22.42
2022-10-14T08:59:22.204Z,24.08
2022-10-14T09:01:52.570Z,22.67
2022-10-14T09:04:20.193Z,25.80
2022-10-14T09:06:49.645Z,22.13
2022-10-14T09:09:20.234Z,23.75
2022-10-14T09:11:52.037Z,21.60
2022-10-14T09:14:20.808Z,21.83
2022-10-14T09:16:51.870Z,26.27
2022-10-14T09:19:26.447Z,22.08
2022-10-14T09:21:54.596Z,23.25
2022-10-14T09:24:23.922Z,20.13
2022-10-14T09:26:54.658Z,21.83
2022-10-14T09:31:49.595Z,21.90
2022-10-14T09:34:20.242Z,20.55
2022-10-14T09:36:48.890Z,20.95
2022-10-14T09:39:16.902Z,20.35
2022-10-14T09:41:45.473Z,23.33
2022-10-14T09:44:21.358Z,21.58
2022-10-14T09:46:50.869Z,19.92
2022-10-14T09:49:19.360Z,18.75
2022-10-14T09:51:46.830Z,17.10
2022-10-14T09:54:22.600Z,22.88
2022-10-14T09:56:49.968Z,17.02
2022-10-14T09:59:20.340Z,19.17
2022-10-14T10:01:51.415Z,23.05
2022-10-14T10:04:25.823Z,18.25
2022-10-14T10:06:54.288Z,20.13
2022-10-14T10:09:22.061Z,16.90
2022-10-14T10:11:49.798Z,16.55
2022-10-14T10:14:22.214Z,20.40
2022-10-14T10:19:27.018Z,14.65
2022-10-14T10:21:54.653Z,17.35
2022-10-14T10:24:26.026Z,21.02
2022-10-14T10:26:56.074Z,19.27
2022-10-14T10:29:31.077Z,20.95
2022-10-14T10:32:06.451Z,14.48
2022-10-14T10:34:39.721Z,18.52
2022-10-14T10:37:14.639Z,18.83
2022-10-14T10:39:47.890Z,21.45
2022-10-14T10:42:19.763Z,17.48
2022-10-14T10:44:59.796Z,19.90
2022-10-14T10:47:33.141Z,18.45
2022-10-14T10:50:19.420Z,16.45
2022-10-14T10:52:53.130Z,19.80
2022-10-14T10:55:25.922Z,15.35
2022-10-14T10:57:58.421Z,14.45
2022-10-14T11:00:28.349Z,18.15
2022-10-14T11:03:09.866Z,16.85
2022-10-14T11:05:42.884Z,15.30
2022-10-14T11:08:34.184Z,17.05
2022-10-14T11:11:23.940Z,12.88
2022-10-14T11:13:52.921Z,15.63
2022-10-14T11:16:28.497Z,16.55
2022-10-14T11:19:01.214Z,15.45
2022-10-14T11:21:31.918Z,20.95
2022-10-14T11:24:06.941Z,15.15
2022-10-14T11:26:45.487Z,16.63
2022-10-14T11:29:18.663Z,16.88
2022-10-14T11:31:52.042Z,17.35
2022-10-14T11:34:30.704Z,13.70
2022-10-14T11:37:04.194Z,18.73
2022-10-14T11:39:39.819Z,16.38
2022-10-14T11:42:13.735Z,16.38
2022-10-14T11:44:42.220Z,18.23
2022-10-14T11:47:13.119Z,15.90
2022-10-14T11:49:43.887Z,15.88
2022-10-14T11:52:12.608Z,16.02
2022-10-14T11:54:43.574Z,14.60
2022-10-14T11:57:13.982Z,11.73
2022-10-14T12:00:02.739Z,11.45
2022-10-14T12:02:39.305Z,14.38
2022-10-14T12:05:10.003Z,13.45
2022-10-14T12:07:38.905Z,14.25
2022-10-14T12:10:13.137Z,14.63
2022-10-14T12:12:41.748Z,12.38
2022-10-14T12:15:15.314Z,12.95
2022-10-14T12:17:47.230Z,12.55
2022-10-14T12:20:18.924Z,10.38
2022-10-14T12:22:47.750Z,10.35
2022-10-14T12:25:17.777Z,9.90
2022-10-14T12:27:45.419Z,8.27
2022-10-14T12:30:27.645Z,7.88
2022-10-14T12:33:03.481Z,8.63
2022-10-14T12:35:47.655Z,8.10
2022-10-14T12:38:15.036Z,10.10
2022-10-14T12:40:42.388Z,8.20
2022-10-14T12:43:29.455Z,9.02
2022-10-14T12:46:01.694Z,8.75
2022-10-14T12:48:32.356Z,10.77
2022-10-14T12:51:07.761Z,8.65
2022-10-14T12:53:35.610Z,7.25
2022-10-14T12:56:04.151Z,11.73
2022-10-14T12:58:32.854Z,10.10
2022-10-14T13:01:02.483Z,9.45
2022-10-14T13:03:33.749Z,8.68
2022-10-14T13:06:20.027Z,8.88
2022-10-14T13:09:02.309Z,7.00
2022-10-14T13:11:29.727Z,6.65
2022-10-14T13:14:00.916Z,10.20
2022-10-14T13:16:47.049Z,7.38
2022-10-14T13:19:38.498Z,8.18
2022-10-14T13:22:06.537Z,6.95
2022-10-14T13:24:35.309Z,7.15
2022-10-14T13:27:08.005Z,7.55
2022-10-14T13:29:43.414Z,7.85
2022-10-14T13:32:20.568Z,7.45
2022-10-14T13:34:56.799Z,9.88
2022-10-14T13:37:30.090Z,7.07
2022-10-14T13:39:57.785Z,6.60
2022-10-14T13:42:27.095Z,7.43
2022-10-14T13:44:56.319Z,7.90
2022-10-14T13:47:24.460Z,7.65
2022-10-14T13:49:53.434Z,9.23
2022-10-14T13:52:22.218Z,9.65
2022-10-14T13:54:49.875Z,6.63
2022-10-14T14:00:40.229Z,9.10
2022-10-14T14:03:15.920Z,7.35
2022-10-14T14:05:44.700Z,7.53
2022-10-14T14:11:21.754Z,7.78
2022-10-14T14:14:01.202Z,6.20
2022-10-14T14:16:33.332Z,6.95
2022-10-14T14:19:08.362Z,8.27
2022-10-14T14:21:38.317Z,8.30
2022-10-14T14:24:11.714Z,6.72
2022-10-14T14:26:39.847Z,7.38
2022-10-14T14:29:07.913Z,6.30
2022-10-14T14:32:05.115Z,6.68
2022-10-14T14:34:24.201Z,6.18
2022-10-14T14:36:55.753Z,5.57
2022-10-14T14:39:32.962Z,6.00
2022-10-14T14:42:00.505Z,8.80
2022-10-14T14:44:29.583Z,5.30
2022-10-14T14:46:58.315Z,6.55
2022-10-14T14:49:27.411Z,7.07
2022-10-14T14:51:56.551Z,11.25
2022-10-14T14:54:24.442Z,7.22
2022-10-14T14:56:53.279Z,8.75
2022-10-14T14:59:23.526Z,9.73
2022-10-14T15:01:50.974Z,6.72
2022-10-14T15:04:19.643Z,7.28
2022-10-14T15:06:51.416Z,4.45
2022-10-14T15:09:23.541Z,5.40
2022-10-14T15:11:51.670Z,7.15
2022-10-14T15:14:28.571Z,6.00
2022-10-14T15:16:55.922Z,6.63
2022-10-14T15:19:34.203Z,7.15
2022-10-14T15:22:23.958Z,6.10
2022-10-14T15:24:59.507Z,4.45
2022-10-14T15:27:45.720Z,5.93
2022-10-14T15:30:35.637Z,6.32
2022-10-14T15:33:04.834Z,5.55
2022-10-14T15:35:32.678Z,6.18
2022-10-14T15:38:00.087Z,4.68
2022-10-14T15:40:30.154Z,7.45
2022-10-14T15:42:57.930Z,5.88
2022-10-14T15:45:25.764Z,6.88
2022-10-14T15:47:53.794Z,6.40
2022-10-14T15:50:22.699Z,6.95
2022-10-14T15:52:53.355Z,6.32
2022-10-14T15:55:21.617Z,7.45
2022-10-14T15:57:50.971Z,9.23
2022-10-14T16:00:19.068Z,7.78
2022-10-14T16:02:47.158Z,7.03
2022-10-14T16:05:19.911Z,8.88
2022-10-14T16:07:48.360Z,6.60
2022-10-14T16:10:16.741Z,8.68
2022-10-14T16:12:44.479Z,6.43
2022-10-14T16:15:27.053Z,8.90
2022-10-14T16:17:54.464Z,8.20
2022-10-14T16:20:22.348Z,7.82
2022-10-14T16:22:49.800Z,7.13
2022-10-14T16:25:19.668Z,7.32
2022-10-14T16:27:47.026Z,10.48
2022-10-14T16:30:14.434Z,10.18
2022-10-14T16:32:43.327Z,9.23
2022-10-14T16:35:10.800Z,9.50
2022-10-14T16:37:38.773Z,11.70
2022-10-14T16:40:06.767Z,13.75
2022-10-14T16:42:34.288Z,10.70
2022-10-14T16:45:01.658Z,9.75
2022-10-14T16:47:29.099Z,9.18
2022-10-14T16:49:57.998Z,12.10
2022-10-14T16:52:25.653Z,13.13
2022-10-14T16:54:53.266Z,9.60
2022-10-14T16:57:21.686Z,9.27
2022-10-14T16:59:49.084Z,8.93
2022-10-14T17:02:17.144Z,10.23
2022-10-14T17:04:46.366Z,8.85
2022-10-14T17:07:17.303Z,9.30
2022-10-14T17:09:44.694Z,9.20
2022-10-14T17:12:13.983Z,8.93
2022-10-14T17:14:41.765Z,12.15
2022-10-14T17:17:10.263Z,9.88
2022-10-14T17:19:38.302Z,10.45
2022-10-14T17:22:05.690Z,11.38
2022-10-14T17:24:34.507Z,9.50
2022-10-14T17:27:04.447Z,14.05
2022-10-14T17:29:32.082Z,9.23
2022-10-14T17:31:59.439Z,9.80
2022-10-14T17:34:26.794Z,10.35
2022-10-14T17:36:54.294Z,10.13
2022-10-14T17:39:27.549Z,10.82
2022-10-14T17:41:58.375Z,9.60
2022-10-14T17:44:25.781Z,7.65
2022-10-14T17:46:53.529Z,9.05
2022-10-14T17:49:21.124Z,11.95
2022-10-14T17:51:48.643Z,12.82
2022-10-14T17:54:16.041Z,9.15
2022-10-14T17:56:43.391Z,10.98
2022-10-14T17:59:14.001Z,10.32
2022-10-14T18:04:28.619Z,9.98
2022-10-14T18:06:56.098Z,10.38
2022-10-14T18:09:23.476Z,10.35
2022-10-14T18:14:40.328Z,9.70
2022-10-14T18:17:07.770Z,9.05
2022-10-14T18:19:35.162Z,8.75
2022-10-14T18:22:02.715Z,13.95
2022-10-14T18:24:30.087Z,11.93
2022-10-14T18:26:57.519Z,10.15
2022-10-14T18:29:24.964Z,10.73
2022-10-14T18:31:53.693Z,10.43
2022-10-14T18:34:22.327Z,9.65
2022-10-14T18:36:49.755Z,10.40
2022-10-14T18:39:17.103Z,10.57
2022-10-14T18:41:44.774Z,15.75
2022-10-14T18:44:12.188Z,8.95
2022-10-14T18:46:40.117Z,10.07
2022-10-14T18:49:09.360Z,9.68
2022-10-14T18:51:37.913Z,10.35
2022-10-14T18:54:06.640Z,10.27
2022-10-14T18:56:36.356Z,10.38
2022-10-14T18:59:06.792Z,14.13
2022-10-14T19:01:35.241Z,11.88
2022-10-14T19:04:04.586Z,9.75
2022-10-14T19:06:33.351Z,14.55
2022-10-14T19:09:02.110Z,12.23
2022-10-14T19:11:30.242Z,12.20
2022-10-14T19:13:58.645Z,12.15
2022-10-14T19:16:26.885Z,12.05
2022-10-14T19:18:54.871Z,11.15
2022-10-14T19:21:23.266Z,11.52
2022-10-14T19:23:52.003Z,12.82
2022-10-14T19:26:20.309Z,10.50
2022-10-14T19:28:48.332Z,16.60
2022-10-14T19:31:17.298Z,12.27
2022-10-14T19:33:45.350Z,11.18
2022-10-14T19:36:13.455Z,10.88
2022-10-14T19:38:41.293Z,11.45
2022-10-14T19:41:09.998Z,13.60
2022-10-14T19:43:37.473Z,11.60
2022-10-14T19:46:06.140Z,12.02
2022-10-14T19:48:33.592Z,11.07
2022-10-14T19:51:06.127Z,10.27
2022-10-14T19:53:34.686Z,10.50
2022-10-14T19:56:05.574Z,13.35
2022-10-14T20:01:07.520Z,10.75
2022-10-14T20:03:35.036Z,14.82
2022-10-14T20:06:02.537Z,12.27
2022-10-14T20:08:29.939Z,10.23
2022-10-14T20:10:57.346Z,12.35
2022-10-14T20:13:24.728Z,12.52
2022-10-14T20:15:55.318Z,14.20
2022-10-14T20:18:24.129Z,12.32
2022-10-14T20:20:51.555Z,14.82
2022-10-14T20:23:19.370Z,13.05
2022-10-14T20:25:47.099Z,12.93
2022-10-14T20:28:15.577Z,14.02
2022-10-14T20:30:44.020Z,15.30
2022-10-14T20:33:11.375Z,13.43
2022-10-14T20:35:40.103Z,14.70
2022-10-14T20:38:07.441Z,13.48
2022-10-14T20:40:34.897Z,16.98
2022-10-14T20:43:02.588Z,14.77
2022-10-14T20:45:29.978Z,15.48
2022-10-14T20:47:57.384Z,17.83
2022-10-14T20:50:24.707Z,16.38
2022-10-14T20:52:53.381Z,17.48
2022-10-14T20:55:20.808Z,15.93
2022-10-14T20:57:48.207Z,16.75
2022-10-14T21:00:15.964Z,18.83
2022-10-14T21:05:15.794Z,18.92
2022-10-14T21:07:43.132Z,16.13
2022-10-14T21:10:11.930Z,21.60
2022-10-14T21:12:39.271Z,18.08
2022-10-14T21:15:07.090Z,18.33
2022-10-14T21:17:34.429Z,17.17
2022-10-14T21:20:01.828Z,18.40
2022-10-14T21:22:29.201Z,18.98
2022-10-14T21:24:56.558Z,20.25
2022-10-14T21:27:25.541Z,17.25
2022-10-14T21:29:53.123Z,19.08
2022-10-14T21:32:20.878Z,20.92
2022-10-14T21:34:48.448Z,20.02
2022-10-14T21:37:17.915Z,21.88
2022-10-14T21:39:45.330Z,21.85
2022-10-14T21:42:14.241Z,23.52
2022-10-14T21:44:42.953Z,24.83
2022-10-14T21:47:10.280Z,22.48
2022-10-14T21:49:37.630Z,22.67
2022-10-14T21:52:05.195Z,18.77
2022-10-14T21:54:32.562Z,20.40
2022-10-14T21:56:59.960Z,21.35
2022-10-14T21:59:27.339Z,22.45
2022-10-14T22:01:58.769Z,19.02
2022-10-14T22:04:26.695Z,19.48
2022-10-14T22:06:54.059Z,22.83
2022-10-14T22:09:21.428Z,22.73
2022-10-14T22:11:48.826Z,17.42
2022-10-14T22:14:18.243Z,21.00
2022-10-14T22:16:45.681Z,22.70
2022-10-14T22:19:14.676Z,21.05
2022-10-14T22:21:42.823Z,25.88
2022-10-14T22:24:10.462Z,23.58
2022-10-14T22:26:38.649Z,21.85
2022-10-14T22:29:06.929Z,23.75
2022-10-14T22:31:34.937Z,21.38
2022-10-14T22:34:02.631Z,22.77
2022-10-14T22:36:32.189Z,26.52
2022-10-14T22:39:00.304Z,24.40
2022-10-14T22:41:32.525Z,26.15
2022-10-14T22:44:02.978Z,21.73
2022-10-14T22:46:31.175Z,21.95
2022-10-14T22:48:59.304Z,23.90
2022-10-14T22:54:01.004Z,22.67
2022-10-14T22:56:29.299Z,22.13
2022-10-14T22:58:57.660Z,23.92
2022-10-14T23:01:27.557Z,22.33
2022-10-14T23:03:55.332Z,25.45
2022-10-14T23:06:22.724Z,20.58
2022-10-14T23:08:50.096Z,23.17
2022-10-14T23:11:19.589Z,22.77
2022-10-14T23:13:47.157Z,23.95
2022-10-14T23:16:15.317Z,19.88
2022-10-14T23:21:16.109Z,20.65
2022-10-14T23:23:44.092Z,20.38
2022-10-14T23:26:11.820Z,22.30
2022-10-14T23:28:40.993Z,19.45
2022-10-14T23:31:09.070Z,20.88
2022-10-14T23:33:36.540Z,23.35
2022-10-14T23:36:04.406Z,22.92
2022-10-14T23:38:31.775Z,19.00
2022-10-14T23:41:02.555Z,20.23
2022-10-14T23:43:30.558Z,22.73
2022-10-14T23:45:59.367Z,19.50
2022-10-14T23:48:27.254Z,19.85
2022-10-14T23:50:54.856Z,19.05
2022-10-14T23:53:22.383Z,20.23
2022-10-14T23:55:49.911Z,24.35
2022-10-14T23:58:17.291Z,20.55
